createdAt,value
2023-04-18T00:00:33.637Z,102881.72
2023-04-18T00:03:02.275Z,102890.56
2023-04-18T00:05:30.559Z,102891.50
2023-04-18T00:07:57.233Z,102890.56
2023-04-18T00:10:23.959Z,102888.09
2023-04-18T00:12:51.528Z,102886.16
2023-04-18T00:15:18.537Z,102894.53
2023-04-18T00:17:45.151Z,102878.75
2023-04-18T00:20:12.676Z,102901.41
2023-04-18T00:22:43.068Z,102892.59
2023-04-18T00:25:11.047Z,102888.66
2023-04-18T00:27:41.402Z,102893.56
2023-04-18T00:30:09.002Z,102902.09
2023-04-18T00:32:35.894Z,102903.56
2023-04-18T00:35:02.592Z,102889.97
2023-04-18T00:37:29.936Z,102894.88
2023-04-18T00:39:56.542Z,102887.50
2023-04-18T00:42:24.441Z,102900.81
2023-04-18T00:44:51.132Z,102886.38
2023-04-18T00:47:17.775Z,102884.91
2023-04-18T00:49:44.999Z,102886.91
2023-04-18T00:52:15.486Z,102893.78
2023-04-18T00:54:43.847Z,102888.53
2023-04-18T00:57:11.498Z,102881.38
2023-04-18T00:59:38.780Z,102877.66
2023-04-18T01:02:05.774Z,102877.88
2023-04-18T01:04:32.642Z,102883.66
2023-04-18T01:07:00.997Z,102883.22
2023-04-18T01:09:28.424Z,102881.44
2023-04-18T01:11:55.092Z,102878.84
2023-04-18T01:14:21.912Z,102869.50
2023-04-18T01:16:48.703Z,102881.16
2023-04-18T01:19:19.161Z,102879.19
2023-04-18T01:21:45.899Z,102866.13
2023-04-18T01:24:15.205Z,102871.47
2023-04-18T01:26:44.797Z,102866.75
2023-04-18T01:29:12.163Z,102866.75
2023-04-18T01:31:40.509Z,102865.59
2023-04-18T01:34:08.189Z,102863.31
2023-04-18T01:36:36.742Z,102862.03
2023-04-18T01:39:03.543Z,102859.72
2023-04-18T01:41:32.703Z,102867.59
2023-04-18T01:43:59.710Z,102864.78
2023-04-18T01:46:26.662Z,102856.59
2023-04-18T01:48:53.250Z,102857.91
2023-04-18T01:51:19.887Z,102865.41
2023-04-18T01:53:46.470Z,102858.72
2023-04-18T01:56:13.125Z,102864.81
2023-04-18T01:58:41.582Z,102855.63
2023-04-18T02:01:08.294Z,102854.16
2023-04-18T02:03:35.079Z,102860.06
2023-04-18T02:06:04.296Z,102847.47
2023-04-18T02:08:32.986Z,102856.97
2023-04-18T02:11:01.355Z,102857.63
2023-04-18T02:13:28.591Z,102858.16
2023-04-18T02:15:55.212Z,102864.03
2023-04-18T02:18:24.734Z,102852.75
2023-04-18T02:20:52.011Z,102859.44
2023-04-18T02:23:19.027Z,102856.50
2023-04-18T02:25:45.813Z,102857.47
2023-04-18T02:28:13.888Z,102857.16
2023-04-18T02:30:40.495Z,102862.06
2023-04-18T02:33:07.132Z,102857.00
2023-04-18T02:35:33.783Z,102858.78
2023-04-18T02:38:00.658Z,102860.75
2023-04-18T02:40:27.166Z,102862.38
2023-04-18T02:42:53.707Z,102867.31
2023-04-18T02:45:20.416Z,102859.25
2023-04-18T02:47:54.476Z,102856.00
2023-04-18T02:50:22.620Z,102860.56
2023-04-18T02:52:49.209Z,102861.56
2023-04-18T02:55:16.262Z,102862.84
2023-04-18T02:57:43.196Z,102854.34
2023-04-18T03:00:10.189Z,102864.16
2023-04-18T03:02:36.934Z,102858.09
2023-04-18T03:05:04.179Z,102857.94
2023-04-18T03:07:31.104Z,102864.66
2023-04-18T03:09:58.063Z,102858.56
2023-04-18T03:12:24.717Z,102857.91
2023-04-18T03:14:51.373Z,102854.78
2023-04-18T03:17:18.725Z,102853.31
2023-04-18T03:19:46.523Z,102850.53
2023-04-18T03:22:14.035Z,102855.59
2023-04-18T03:24:40.704Z,102855.28
2023-04-18T03:27:07.490Z,102858.38
2023-04-18T03:29:34.197Z,102849.06
2023-04-18T03:32:00.868Z,102856.41
2023-04-18T03:34:27.662Z,102864.41
2023-04-18T03:36:54.324Z,102867.34
2023-04-18T03:39:20.981Z,102864.72
2023-04-18T03:41:47.623Z,102871.59
2023-04-18T03:44:14.544Z,102863.09
2023-04-18T03:46:41.687Z,102873.22
2023-04-18T03:49:08.673Z,102860.94
2023-04-18T03:51:47.292Z,102869.78
2023-04-18T03:54:15.453Z,102870.25
2023-04-18T03:56:42.359Z,102874.00
2023-04-18T03:59:09.212Z,102878.09
2023-04-18T04:01:35.864Z,102873.47
2023-04-18T04:04:03.459Z,102875.63
2023-04-18T04:06:31.488Z,102881.69
2023-04-18T04:08:58.267Z,102869.06
2023-04-18T04:11:24.873Z,102868.59
2023-04-18T04:13:51.591Z,102867.31
2023-04-18T04:16:18.326Z,102876.81
2023-04-18T04:18:44.915Z,102873.22
2023-04-18T04:21:11.491Z,102869.81
2023-04-18T04:23:38.145Z,102871.44
2023-04-18T04:26:04.858Z,102871.78
2023-04-18T04:28:31.546Z,102863.44
2023-04-18T04:30:58.183Z,102872.97
2023-04-18T04:33:28.467Z,102870.50
2023-04-18T04:35:56.600Z,102865.91
2023-04-18T04:38:23.248Z,102880.00
2023-04-18T04:40:50.130Z,102868.22
2023-04-18T04:43:17.325Z,102869.69
2023-04-18T04:45:44.706Z,102875.28
2023-04-18T04:48:11.408Z,102873.63
2023-04-18T04:50:40.242Z,102878.53
2023-04-18T04:53:09.048Z,102888.03
2023-04-18T04:55:35.992Z,102882.31
2023-04-18T04:58:02.573Z,102884.59
2023-04-18T05:00:29.250Z,102890.00
2023-04-18T05:02:59.927Z,102881.16
2023-04-18T05:05:26.716Z,102882.63
2023-04-18T05:07:53.419Z,102883.75
2023-04-18T05:10:20.114Z,102888.03
2023-04-18T05:12:46.674Z,102898.19
2023-04-18T05:15:16.263Z,102895.56
2023-04-18T05:17:42.882Z,102893.44
2023-04-18T05:20:10.145Z,102904.56
2023-04-18T05:22:36.811Z,102896.72
2023-04-18T05:25:03.513Z,102899.19
2023-04-18T05:27:30.183Z,102898.19
2023-04-18T05:29:56.770Z,102897.56
2023-04-18T05:32:23.475Z,102887.09
2023-04-18T05:34:50.069Z,102901.00
2023-04-18T05:37:16.926Z,102900.84
2023-04-18T05:39:43.466Z,102900.84
2023-04-18T05:42:09.968Z,102905.75
2023-04-18T05:44:37.208Z,102906.25
2023-04-18T05:47:06.216Z,102908.06
2023-04-18T05:49:32.779Z,102914.63
2023-04-18T05:51:59.563Z,102918.56
2023-04-18T05:54:26.189Z,102917.91
2023-04-18T05:56:52.738Z,102917.44
2023-04-18T05:59:20.661Z,102914.66
2023-04-18T06:01:47.136Z,102916.13
2023-04-18T06:04:14.181Z,102912.03
2023-04-18T06:06:41.352Z,102918.09
2023-04-18T06:09:07.893Z,102919.59
2023-04-18T06:11:35.599Z,102922.50
2023-04-18T06:14:02.850Z,102935.13
2023-04-18T06:16:29.356Z,102927.91
2023-04-18T06:18:56.028Z,102930.69
2023-04-18T06:21:22.493Z,102925.94
2023-04-18T06:23:48.998Z,102930.69
2023-04-18T06:26:15.975Z,102922.50
2023-04-18T06:28:42.539Z,102923.47
2023-04-18T06:31:09.077Z,102932.13
2023-04-18T06:33:37.680Z,102927.22
2023-04-18T06:36:05.666Z,102934.56
2023-04-18T06:38:32.546Z,102935.88
2023-04-18T06:40:59.114Z,102938.81
2023-04-18T06:43:25.722Z,102935.81
2023-04-18T06:45:52.366Z,102945.31
2023-04-18T06:48:18.902Z,102945.97
2023-04-18T06:50:45.668Z,102940.06
2023-04-18T06:53:12.283Z,102942.16
2023-04-18T06:55:38.745Z,102950.69
2023-04-18T06:58:05.850Z,102954.47
2023-04-18T07:00:32.360Z,102951.50
2023-04-18T07:02:58.952Z,102944.63
2023-04-18T07:05:25.602Z,102948.72
2023-04-18T07:07:52.057Z,102949.66
2023-04-18T07:10:18.524Z,102953.25
2023-04-18T07:12:45.049Z,102958.00
2023-04-18T07:15:11.818Z,102953.75
2023-04-18T07:17:38.437Z,102960.63
2023-04-18T07:20:05.765Z,102960.44
2023-04-18T07:22:32.297Z,102960.44
2023-04-18T07:24:58.755Z,102959.63
2023-04-18T07:27:25.951Z,102961.91
2023-04-18T07:29:52.482Z,102952.69
2023-04-18T07:32:18.981Z,102948.06
2023-04-18T07:34:45.595Z,102960.47
2023-04-18T07:37:14.629Z,102961.44
2023-04-18T07:39:41.724Z,102960.56
2023-04-18T07:42:08.480Z,102954.31
2023-04-18T07:44:36.268Z,102957.56
2023-04-18T07:47:03.350Z,102948.66
2023-04-18T07:49:29.833Z,102945.91
2023-04-18T07:51:56.319Z,102952.69
2023-04-18T07:54:22.923Z,102949.97
2023-04-18T07:56:49.455Z,102952.09
2023-04-18T07:59:16.162Z,102949.63
2023-04-18T08:01:42.915Z,102960.97
2023-04-18T08:04:09.699Z,102965.31
2023-04-18T08:06:36.329Z,102946.75
2023-04-18T08:09:05.615Z,102950.59
2023-04-18T08:11:33.589Z,102948.13
2023-04-18T08:14:00.619Z,102945.75
2023-04-18T08:16:27.688Z,102947.47
2023-04-18T08:18:54.226Z,102947.81
2023-04-18T08:21:20.834Z,102950.22
2023-04-18T08:23:47.327Z,102944.44
2023-04-18T08:26:13.852Z,102945.34
2023-04-18T08:28:41.148Z,102951.84
2023-04-18T08:31:12.006Z,102954.81
2023-04-18T08:33:38.489Z,102959.09
2023-04-18T08:36:05.346Z,102969.19
2023-04-18T08:38:31.795Z,102959.94
2023-04-18T08:40:58.287Z,102958.19
2023-04-18T08:43:25.376Z,102959.41
2023-04-18T08:45:57.529Z,102955.91
2023-04-18T08:48:24.015Z,102960.03
2023-04-18T08:50:51.274Z,102958.84
2023-04-18T08:53:18.531Z,102955.03
2023-04-18T08:55:46.815Z,102959.56
2023-04-18T08:58:22.249Z,102955.94
2023-04-18T09:00:53.166Z,102957.13
2023-04-18T09:03:37.519Z,102954.94
2023-04-18T09:06:09.044Z,102967.94
2023-04-18T09:08:35.527Z,102958.25
2023-04-18T09:11:28.786Z,102952.81
2023-04-18T09:13:57.158Z,102962.16
2023-04-18T09:16:23.695Z,102964.03
2023-04-18T09:19:14.025Z,102964.63
2023-04-18T09:21:42.754Z,102950.28
2023-04-18T09:24:22.684Z,102949.16
2023-04-18T09:26:49.985Z,102943.47
2023-04-18T09:29:22.589Z,102947.03
2023-04-18T09:31:57.613Z,102942.50
2023-04-18T09:34:25.091Z,102958.19
2023-04-18T09:37:11.872Z,102964.50
2023-04-18T09:39:43.135Z,102960.09
2023-04-18T09:42:10.874Z,102952.84
2023-04-18T09:44:38.777Z,102955.81
2023-04-18T09:47:07.770Z,102948.09
2023-04-18T09:49:35.028Z,102949.25
2023-04-18T09:52:05.270Z,102944.16
2023-04-18T09:54:34.423Z,102950.44
2023-04-18T09:57:04.160Z,102947.69
2023-04-18T09:59:41.414Z,102939.78
2023-04-18T10:02:15.565Z,102945.69
2023-04-18T10:04:46.823Z,102945.44
2023-04-18T10:07:16.760Z,102935.75
2023-04-18T10:09:46.310Z,102939.66
2023-04-18T10:12:13.519Z,102932.53
2023-04-18T10:14:43.127Z,102942.16
2023-04-18T10:17:11.762Z,102945.50
2023-04-18T10:19:41.967Z,102951.16
2023-04-18T10:22:08.581Z,102943.81
2023-04-18T10:24:56.454Z,102941.03
2023-04-18T10:27:47.564Z,102936.91
2023-04-18T10:30:18.312Z,102930.84
2023-04-18T10:32:47.705Z,102923.81
2023-04-18T10:35:14.271Z,102928.06
2023-04-18T10:37:51.390Z,102930.38
2023-04-18T10:40:32.772Z,102937.47
2023-04-18T10:42:59.546Z,102945.84
2023-04-18T10:45:28.498Z,102943.56
2023-04-18T10:48:29.578Z,102927.00
2023-04-18T10:51:22.468Z,102914.84
2023-04-18T10:53:53.493Z,102919.38
2023-04-18T10:56:20.401Z,102912.53
2023-04-18T10:58:52.169Z,102899.94
2023-04-18T11:01:32.504Z,102902.97
2023-04-18T11:04:00.413Z,102910.97
2023-04-18T11:06:27.701Z,102916.25
2023-04-18T11:09:12.523Z,102904.53
2023-04-18T11:11:39.640Z,102897.78
2023-04-18T11:14:06.188Z,102905.06
2023-04-18T11:16:33.867Z,102903.28
2023-04-18T11:19:00.628Z,102902.25
2023-04-18T11:21:30.690Z,102906.34
2023-04-18T11:23:57.844Z,102899.47
2023-04-18T11:26:28.960Z,102893.78
2023-04-18T11:28:58.733Z,102884.41
2023-04-18T11:31:25.567Z,102899.69
2023-04-18T11:33:52.564Z,102891.34
2023-04-18T11:36:19.218Z,102887.66
2023-04-18T11:38:46.102Z,102885.66
2023-04-18T11:41:16.173Z,102895.59
2023-04-18T11:43:46.923Z,102896.41
2023-04-18T11:46:13.776Z,102894.97
2023-04-18T11:48:42.548Z,102899.09
2023-04-18T11:51:34.230Z,102895.84
2023-04-18T11:54:00.676Z,102898.66
2023-04-18T11:56:27.250Z,102896.03
2023-04-18T11:58:53.906Z,102898.69
2023-04-18T12:01:25.567Z,102891.34
2023-04-18T12:04:01.394Z,102896.66
2023-04-18T12:06:29.601Z,102903.59
2023-04-18T12:09:00.545Z,102894.84
2023-04-18T12:11:27.290Z,102900.78
2023-04-18T12:13:56.586Z,102896.34
2023-04-18T12:16:28.311Z,102909.16
2023-04-18T12:19:01.266Z,102899.56
2023-04-18T12:21:29.541Z,102907.69
2023-04-18T12:23:57.334Z,102899.16
2023-04-18T12:26:23.912Z,102897.94
2023-04-18T12:28:51.393Z,102892.25
2023-04-18T12:31:18.008Z,102899.16
2023-04-18T12:33:44.584Z,102886.78
2023-04-18T12:36:11.153Z,102892.44
2023-04-18T12:38:37.724Z,102881.66
2023-04-18T12:41:04.366Z,102892.66
2023-04-18T12:43:30.839Z,102887.97
2023-04-18T12:45:57.773Z,102878.81
2023-04-18T12:48:24.426Z,102871.25
2023-04-18T12:50:50.904Z,102878.41
2023-04-18T12:53:17.477Z,102880.22
2023-04-18T12:55:44.178Z,102875.56
2023-04-18T12:58:10.760Z,102869.88
2023-04-18T13:00:37.266Z,102873.53
2023-04-18T13:03:04.103Z,102881.88
2023-04-18T13:05:33.493Z,102882.28
2023-04-18T13:10:31.193Z,102877.59
2023-04-18T13:12:57.709Z,102877.19
2023-04-18T13:15:24.446Z,102879.22
2023-04-18T13:17:51.221Z,102876.56
2023-04-18T13:20:19.190Z,102882.47
2023-04-18T13:22:45.837Z,102875.16
2023-04-18T13:25:12.475Z,102887.16
2023-04-18T13:27:41.958Z,102886.16
2023-04-18T13:30:10.769Z,102883.91
2023-04-18T13:32:39.174Z,102880.63
2023-04-18T13:35:08.326Z,102880.03
2023-04-18T13:37:34.945Z,102871.88
2023-04-18T13:40:01.568Z,102857.63
2023-04-18T13:42:28.246Z,102870.25
2023-04-18T13:44:54.761Z,102867.19
2023-04-18T13:47:21.250Z,102859.25
2023-04-18T13:49:47.761Z,102873.03
2023-04-18T13:52:14.376Z,102870.75
2023-04-18T13:54:41.462Z,102864.44
2023-04-18T13:57:11.707Z,102863.44
2023-04-18T13:59:40.520Z,102872.63
2023-04-18T14:02:10.629Z,102872.81
2023-04-18T14:04:38.089Z,102863.63
2023-04-18T14:07:06.366Z,102865.00
2023-04-18T14:09:33.314Z,102859.66
2023-04-18T14:11:59.858Z,102869.03
2023-04-18T14:14:26.440Z,102873.31
2023-04-18T14:16:53.733Z,102867.59
2023-04-18T14:19:20.573Z,102865.16
2023-04-18T14:21:47.834Z,102862.31
2023-04-18T14:24:14.504Z,102869.47
2023-04-18T14:26:41.048Z,102855.19
2023-04-18T14:29:07.571Z,102857.59
2023-04-18T14:31:34.233Z,102844.75
2023-04-18T14:34:00.805Z,102847.22
2023-04-18T14:36:27.652Z,102847.63
2023-04-18T14:38:55.043Z,102847.25
2023-04-18T14:41:21.810Z,102845.22
2023-04-18T14:43:48.769Z,102845.59
2023-04-18T14:46:18.604Z,102836.63
2023-04-18T14:48:46.432Z,102839.09
2023-04-18T14:51:14.312Z,102839.31
2023-04-18T14:53:40.911Z,102834.56
2023-04-18T14:56:07.689Z,102835.72
2023-04-18T14:58:34.222Z,102826.66
2023-04-18T15:01:01.335Z,102829.50
2023-04-18T15:03:28.031Z,102831.94
2023-04-18T15:05:55.068Z,102836.50
2023-04-18T15:08:22.057Z,102823.06
2023-04-18T15:10:48.863Z,102825.88
2023-04-18T15:13:15.936Z,102831.75
2023-04-18T15:15:42.639Z,102831.97
2023-04-18T15:18:10.350Z,102824.00
2023-04-18T15:20:37.306Z,102817.50
2023-04-18T15:23:03.834Z,102819.31
2023-04-18T15:25:31.115Z,102820.50
2023-04-18T15:27:58.412Z,102823.16
2023-04-18T15:30:25.610Z,102825.84
2023-04-18T15:32:52.382Z,102826.47
2023-04-18T15:35:18.992Z,102816.91
2023-04-18T15:37:45.495Z,102816.06
2023-04-18T15:40:16.201Z,102808.53
2023-04-18T15:42:43.674Z,102815.25
2023-04-18T15:45:10.908Z,102806.06
2023-04-18T15:47:38.730Z,102815.00
2023-04-18T15:50:05.927Z,102804.16
2023-04-18T15:52:32.416Z,102805.19
2023-04-18T15:54:58.921Z,102805.38
2023-04-18T15:57:25.445Z,102804.56
2023-04-18T15:59:51.992Z,102809.84
2023-04-18T16:02:18.649Z,102796.00
2023-04-18T16:04:45.496Z,102798.81
2023-04-18T16:07:12.246Z,102801.81
2023-04-18T16:09:38.748Z,102806.41
2023-04-18T16:12:07.119Z,102806.00
2023-04-18T16:14:33.741Z,102801.69
2023-04-18T16:17:00.519Z,102810.59
2023-04-18T16:19:27.082Z,102800.97
2023-04-18T16:21:53.567Z,102800.75
2023-04-18T16:24:20.027Z,102796.84
2023-04-18T16:26:46.576Z,102800.38
2023-04-18T16:29:13.103Z,102794.47
2023-04-18T16:31:39.700Z,102804.91
2023-04-18T16:34:06.484Z,102809.91
2023-04-18T16:36:34.752Z,102805.66
2023-04-18T16:39:01.414Z,102807.94
2023-04-18T16:41:28.129Z,102806.13
2023-04-18T16:43:54.686Z,102813.66
2023-04-18T16:46:21.223Z,102808.94
2023-04-18T16:48:48.589Z,102795.91
2023-04-18T16:51:16.185Z,102791.41
2023-04-18T16:53:42.764Z,102797.53
2023-04-18T16:56:09.362Z,102802.19
2023-04-18T16:58:35.846Z,102788.34
2023-04-18T17:01:02.476Z,102783.03
2023-04-18T17:03:29.091Z,102786.28
2023-04-18T17:05:56.010Z,102787.50
2023-04-18T17:08:22.493Z,102789.28
2023-04-18T17:10:52.689Z,102797.28
2023-04-18T17:13:19.262Z,102787.53
2023-04-18T17:15:46.123Z,102791.81
2023-04-18T17:18:12.672Z,102794.88
2023-04-18T17:20:39.165Z,102793.09
2023-04-18T17:23:05.616Z,102799.03
2023-04-18T17:25:32.153Z,102794.78
2023-04-18T17:28:00.764Z,102794.78
2023-04-18T17:30:27.430Z,102802.94
2023-04-18T17:32:54.016Z,102803.75
2023-04-18T17:35:21.118Z,102797.47
2023-04-18T17:37:49.198Z,102801.75
2023-04-18T17:40:15.837Z,102803.97
2023-04-18T17:42:42.518Z,102803.19
2023-04-18T17:45:12.390Z,102802.16
2023-04-18T17:47:39.597Z,102799.31
2023-04-18T17:50:07.168Z,102803.19
2023-04-18T17:52:33.735Z,102803.81
2023-04-18T17:55:01.622Z,102811.56
2023-04-18T17:57:30.303Z,102799.53
2023-04-18T17:59:56.975Z,102802.41
2023-04-18T18:02:23.851Z,102802.81
2023-04-18T18:04:51.572Z,102797.94
2023-04-18T18:07:18.451Z,102795.09
2023-04-18T18:09:45.637Z,102797.19
2023-04-18T18:12:12.419Z,102796.59
2023-04-18T18:14:40.605Z,102801.28
2023-04-18T18:17:07.398Z,102804.56
2023-04-18T18:19:37.320Z,102812.72
2023-04-18T18:22:03.903Z,102808.25
2023-04-18T18:24:30.665Z,102814.97
2023-04-18T18:26:58.980Z,102805.22
2023-04-18T18:29:25.815Z,102807.47
2023-04-18T18:31:52.553Z,102808.88
2023-04-18T18:34:21.202Z,102811.19
2023-04-18T18:36:47.920Z,102817.91
2023-04-18T18:39:16.531Z,102820.56
2023-04-18T18:41:43.518Z,102817.72
2023-04-18T18:44:10.324Z,102813.03
2023-04-18T18:46:37.077Z,102819.75
2023-04-18T18:49:04.010Z,102820.19
2023-04-18T18:51:31.083Z,102829.38
2023-04-18T18:53:59.211Z,102821.84
2023-04-18T18:56:25.835Z,102825.72
2023-04-18T18:58:57.256Z,102822.03
2023-04-18T19:01:24.213Z,102829.97
2023-04-18T19:03:51.097Z,102827.91
2023-04-18T19:06:17.750Z,102828.50
2023-04-18T19:11:29.929Z,102851.47
2023-04-18T19:14:09.885Z,102845.56
2023-04-18T19:22:30.964Z,102857.13
2023-04-18T19:25:02.717Z,102860.81
2023-04-18T19:27:29.626Z,102867.75
2023-04-18T19:30:08.380Z,102875.88
2023-04-18T19:32:56.355Z,102870.78
2023-04-18T19:35:29.007Z,102878.31
2023-04-18T19:38:03.578Z,102879.34
2023-04-18T19:40:47.648Z,102884.81
2023-04-18T19:44:24.531Z,102882.56
2023-04-18T19:47:09.106Z,102886.84
2023-04-18T19:49:38.950Z,102888.06
2023-04-18T19:52:16.761Z,102892.13
2023-04-18T20:12:20.095Z,102909.31
2023-04-18T20:15:56.477Z,102903.38
2023-04-18T20:18:44.719Z,102902.75
2023-04-18T20:21:47.434Z,102905.78
2023-04-18T20:27:46.419Z,102903.25
2023-04-18T20:30:16.366Z,102902.81
2023-04-18T20:32:59.991Z,102904.88
2023-04-18T20:36:15.476Z,102905.84
2023-04-18T20:38:45.319Z,102920.69
2023-04-18T20:41:29.663Z,102910.88
2023-04-18T20:44:45.862Z,102910.88
2023-04-18T20:47:30.367Z,102912.28
2023-04-18T20:50:10.906Z,102909.59
2023-04-18T20:52:52.244Z,102915.06
2023-04-18T20:55:33.556Z,102919.47
2023-04-18T20:58:13.390Z,102915.81
2023-04-18T21:00:42.906Z,102923.13
2023-04-18T21:03:13.694Z,102925.75
2023-04-18T21:05:50.419Z,102928.19
2023-04-18T21:12:07.769Z,102920.41
2023-04-18T21:14:41.291Z,102925.41
2023-04-18T21:17:11.459Z,102921.59
2023-04-18T21:19:45.692Z,102924.59
2023-04-18T21:22:14.372Z,102929.88
2023-04-18T21:24:41.024Z,102934.69
2023-04-18T21:27:16.892Z,102933.44
2023-04-18T21:29:47.896Z,102933.44
2023-04-18T21:32:19.601Z,102934.44
2023-04-18T21:35:02.030Z,102925.66
2023-04-18T21:37:34.756Z,102935.78
2023-04-18T21:40:05.077Z,102934.53
2023-04-18T21:42:35.523Z,102937.97
2023-04-18T21:45:07.990Z,102934.09
2023-04-18T21:47:39.609Z,102931.00
2023-04-18T21:50:09.681Z,102938.28
2023-04-18T21:52:45.464Z,102925.47
2023-04-18T21:55:15.590Z,102932.56
2023-04-18T21:57:45.706Z,102939.47
2023-04-18T22:00:16.090Z,102934.56
2023-04-18T22:02:51.840Z,102934.56
2023-04-18T22:05:20.141Z,102940.66
2023-04-18T22:07:57.472Z,102936.22
2023-04-18T22:10:32.224Z,102926.41
2023-04-18T22:13:00.241Z,102928.03
2023-04-18T22:15:32.862Z,102933.31
2023-04-18T22:18:02.146Z,102922.31
2023-04-18T22:20:29.578Z,102930.41
2023-04-18T22:22:57.854Z,102925.16
2023-04-18T22:25:24.605Z,102929.59
2023-04-18T22:27:51.244Z,102930.19
2023-04-18T22:30:17.919Z,102930.19
2023-04-18T22:32:51.977Z,102923.66
2023-04-18T22:35:36.580Z,102920.13
2023-04-18T22:38:03.334Z,102923.13
2023-04-18T22:40:51.063Z,102935.94
2023-04-18T22:43:31.805Z,102925.78
2023-04-18T22:46:02.083Z,102924.50
2023-04-18T22:48:31.593Z,102934.41
2023-04-18T22:51:04.356Z,102934.59
2023-04-18T22:53:35.701Z,102942.69
2023-04-18T22:56:05.147Z,102942.69
2023-04-18T22:58:40.769Z,102939.59
2023-04-18T23:01:14.659Z,102945.59
2023-04-18T23:03:44.442Z,102934.47
2023-04-18T23:06:17.377Z,102953.09
2023-04-18T23:08:53.372Z,102950.63
2023-04-18T23:11:20.058Z,102950.53
2023-04-18T23:13:48.953Z,102944.47
2023-04-18T23:16:31.440Z,102946.28
2023-04-18T23:18:58.098Z,102961.72
2023-04-18T23:21:24.833Z,102958.81
2023-04-18T23:23:51.538Z,102959.81
2023-04-18T23:26:23.817Z,102959.34
2023-04-18T23:28:51.965Z,102956.53
2023-04-18T23:31:23.756Z,102952.53
2023-04-18T23:33:50.690Z,102951.72
2023-04-18T23:36:19.571Z,102957.00
2023-04-18T23:38:48.434Z,102955.81
2023-04-18T23:41:15.182Z,102947.28
2023-04-18T23:43:41.855Z,102953.38
2023-04-18T23:46:08.573Z,102948.91
2023-04-18T23:48:35.286Z,102951.72
2023-04-18T23:51:22.027Z,102951.91
2023-04-18T23:53:53.888Z,102949.53
2023-04-18T23:56:23.308Z,102943.00
2023-04-18T23:58:55.066Z,102948.09
